Time;durP1;ratioP1;P1;durP2;ratioP2;P2;SDS_P1;SDS_P2;PMS_P1;PMS_P2;Temp;Humidity;BMP_temperature;BMP_pressure;BME280_temperature;BME280_humidity;BME280_pressure;Samples;Min_cycle;Max_cycle;Signal;HPM_P1;HPM_P2
2022/02/15 00:00:45;;;;;;;35.43;18.65;;;;;;;2.14;69.18;100103.12;1659683;85;20970;-77
2022/02/15 00:03:11;;;;;;;34.05;18.80;;;;;;;2.14;69.17;100104.40;1681892;85;20930;-78
2022/02/15 00:05:37;;;;;;;33.08;17.92;;;;;;;2.13;69.21;100104.83;1670813;83;20906;-77
2022/02/15 00:08:05;;;;;;;35.15;18.02;;;;;;;2.14;69.22;100103.98;1680935;85;20898;-78
2022/02/15 00:10:32;;;;;;;35.03;18.05;;;;;;;2.13;69.19;100099.72;1681841;85;20962;-77
2022/02/15 00:13:02;;;;;;;38.05;20.55;;;;;;;2.11;69.21;100102.67;1687459;84;20932;-77
2022/02/15 00:15:26;;;;;;;34.58;17.75;;;;;;;2.09;69.18;100108.19;1701043;84;20899;-78
2022/02/15 00:17:52;;;;;;;35.92;18.92;;;;;;;2.08;69.21;100102.64;1706164;83;21755;-77
2022/02/15 00:20:18;;;;;;;32.42;18.07;;;;;;;2.07;69.29;100100.11;1702087;83;20924;-78
2022/02/15 00:22:44;;;;;;;35.38;18.57;;;;;;;2.08;69.29;100108.20;1680681;84;20903;-77
2022/02/15 00:25:10;;;;;;;39.30;19.47;;;;;;;2.08;69.30;100098.00;1688068;85;20896;-77
2022/02/15 00:27:36;;;;;;;40.80;20.70;;;;;;;2.07;69.34;100089.91;1679174;85;21428;-76
2022/02/15 00:30:04;;;;;;;39.67;20.80;;;;;;;2.06;69.31;100092.03;1655386;85;20884;-77
2022/02/15 00:32:32;;;;;;;37.98;18.32;;;;;;;2.06;69.37;100086.92;1663926;85;20918;-77
2022/02/15 00:34:59;;;;;;;42.80;20.23;;;;;;;2.04;69.29;100092.02;1727948;82;20834;-77
2022/02/15 00:37:26;;;;;;;44.58;20.15;;;;;;;2.01;69.33;100093.25;1678923;84;20975;-77
2022/02/15 00:39:52;;;;;;;38.98;19.52;;;;;;;1.99;69.32;100093.23;1668102;85;21513;-76
2022/02/15 00:42:19;;;;;;;37.27;19.57;;;;;;;1.96;69.34;100097.45;1679823;85;20899;-77
2022/02/15 00:44:48;;;;;;;40.43;18.27;;;;;;;1.94;69.37;100096.16;1686140;85;20923;-77
2022/02/15 00:47:15;;;;;;;42.35;19.73;;;;;;;1.91;69.39;100105.47;1661106;85;20966;-77
2022/02/15 00:49:41;;;;;;;42.88;19.82;;;;;;;1.89;69.43;100108.00;1689715;83;20927;-77
2022/02/15 00:52:08;;;;;;;40.88;19.35;;;;;;;1.87;69.39;100105.86;1656799;84;20923;-77
2022/02/15 00:54:34;;;;;;;39.08;18.27;;;;;;;1.85;69.41;100110.50;1687954;84;20931;-77
2022/02/15 00:57:03;;;;;;;33.55;19.27;;;;;;;1.83;69.46;100110.48;1677533;85;20924;-77
2022/02/15 00:59:29;;;;;;;33.25;17.70;;;;;;;1.80;69.51;100109.17;1681307;85;21854;-76
2022/02/15 01:01:55;;;;;;;31.05;18.05;;;;;;;1.81;69.58;100110.03;1683754;85;20987;-77
2022/02/15 01:04:21;;;;;;;33.42;18.40;;;;;;;1.80;69.63;100114.27;1675624;84;20928;-77
2022/02/15 01:06:47;;;;;;;30.02;18.48;;;;;;;1.84;69.69;100112.61;1695811;84;20922;-77
2022/02/15 01:09:13;;;;;;;29.17;17.83;;;;;;;1.86;69.74;100104.14;1687941;84;20863;-77
2022/02/15 01:11:39;;;;;;;32.08;17.35;;;;;;;1.89;69.74;100100.77;1673502;84;20892;-77
2022/02/15 01:14:06;;;;;;;36.95;18.17;;;;;;;1.92;69.77;100095.70;1670636;85;21393;-77
2022/02/15 01:16:32;;;;;;;34.67;17.62;;;;;;;1.96;69.77;100113.61;1679793;85;20938;-77
2022/02/15 01:18:58;;;;;;;29.40;17.52;;;;;;;1.99;69.82;100107.27;1675582;85;20969;-77
2022/02/15 01:21:24;;;;;;;30.47;17.83;;;;;;;2.04;69.84;100102.21;1667352;85;20848;-76
2022/02/15 01:23:50;;;;;;;31.73;17.92;;;;;;;2.10;69.88;100105.21;1671111;85;21599;-77
2022/02/15 01:26:16;;;;;;;34.40;17.93;;;;;;;2.12;69.91;100098.02;1678272;84;20924;-77
2022/02/15 01:28:42;;;;;;;33.78;18.57;;;;;;;2.15;69.90;100095.91;1675942;85;21103;-77
2022/02/15 01:31:09;;;;;;;33.02;18.20;;;;;;;2.18;69.93;100099.77;1675860;84;21498;-77
2022/02/15 01:33:35;;;;;;;;;;;;;;;2.22;70.00;100096.41;1676420;84;21132;-77
2022/02/15 01:36:01;;;;;;;34.03;16.75;;;;;;;2.24;70.18;100094.72;1675214;84;20767;-78
2022/02/15 01:38:28;;;;;;;36.40;18.85;;;;;;;2.26;70.04;100098.14;1664698;85;21491;-77
2022/02/15 01:40:53;;;;;;;;;;;;;;;2.28;70.07;100097.31;1678359;83;21138;-77
2022/02/15 01:43:20;;;;;;;26.12;15.13;;;;;;;2.31;70.24;100099.90;1670534;84;20883;-77
2022/02/15 01:45:46;;;;;;;27.02;16.52;;;;;;;2.32;70.06;100098.20;1680500;85;22275;-77
2022/02/15 01:48:12;;;;;;;33.98;19.17;;;;;;;2.33;70.10;100104.59;1682220;83;21053;-77
2022/02/15 01:50:38;;;;;;;29.98;17.37;;;;;;;2.35;70.12;100105.88;1692960;83;21027;-77
2022/02/15 01:53:04;;;;;;;31.52;17.95;;;;;;;2.38;70.13;100105.91;1668567;84;21563;-78
2022/02/15 01:55:31;;;;;;;28.23;17.42;;;;;;;2.38;70.14;100102.08;1671567;85;21580;-77
2022/02/15 01:57:57;;;;;;;28.10;17.00;;;;;;;2.41;70.17;100101.25;1675726;84;21560;-77
2022/02/15 02:00:23;;;;;;;31.30;17.97;;;;;;;2.42;70.20;100101.27;1678467;84;20912;-77
2022/02/15 02:02:49;;;;;;;32.40;17.50;;;;;;;2.44;70.20;100106.39;1676797;84;22321;-77
2022/02/15 02:08:02;;;;;;;34.98;17.37;;;;;;;2.50;70.22;100102.61;1660664;85;21526;-77
2022/02/15 02:10:29;;;;;;;29.85;17.32;;;;;;;2.51;70.22;100095.39;1665100;85;20892;-77
2022/02/15 02:12:55;;;;;;;31.15;17.62;;;;;;;2.53;70.26;100094.56;1675203;84;20951;-77
2022/02/15 02:15:25;;;;;;;28.87;16.93;;;;;;;2.55;70.30;100099.26;1686218;85;20924;-77
2022/02/15 02:17:52;;;;;;;33.58;17.10;;;;;;;2.55;70.34;100091.60;1685209;85;21281;-77
2022/02/15 02:20:19;;;;;;;28.77;17.27;;;;;;;2.56;70.36;100094.59;1674035;85;20935;-77
2022/02/15 02:22:44;;;;;;;;;;;;;;;2.56;70.44;100089.48;1676823;85;20894;-77
2022/02/15 02:25:14;;;;;;;29.85;16.80;;;;;;;2.59;70.66;100096.31;1685867;85;20230;-77
2022/02/15 02:27:41;;;;;;;28.83;16.02;;;;;;;2.58;70.49;100086.52;1686045;84;21459;-77
2022/02/15 02:30:12;;;;;;;28.95;17.55;;;;;;;2.59;70.49;100088.66;1677967;85;21361;-77
2022/02/15 02:32:39;;;;;;;32.58;18.25;;;;;;;2.58;70.50;100086.52;1675734;85;21867;-77
2022/02/15 02:35:06;;;;;;;34.00;18.45;;;;;;;2.59;70.50;100086.95;1687886;84;20896;-77
2022/02/15 02:37:34;;;;;;;26.55;17.17;;;;;;;2.60;70.55;100090.36;1684981;85;21376;-77
2022/02/15 02:40:02;;;;;;;30.52;16.87;;;;;;;2.58;70.49;100090.35;1668241;85;21370;-77
2022/02/15 02:42:30;;;;;;;31.15;17.80;;;;;;;2.56;70.53;100083.10;1680567;84;21384;-77
2022/02/15 02:44:58;;;;;;;;;;;;;;;2.55;70.54;100078.84;1662363;85;20943;-78
2022/02/15 02:47:27;;;;;;;29.87;16.77;;;;;;;2.56;70.74;100086.08;1679470;85;20103;-78
2022/02/15 02:49:54;;;;;;;28.10;16.93;;;;;;;2.55;70.60;100090.33;1667995;83;21244;-77
2022/02/15 02:52:22;;;;;;;30.77;17.85;;;;;;;2.55;70.64;100086.50;1685577;85;21598;-78
2022/02/15 02:54:49;;;;;;;33.25;18.20;;;;;;;2.56;70.67;100091.18;1673202;85;20868;-78
2022/02/15 02:57:16;;;;;;;34.95;18.48;;;;;;;2.54;70.67;100093.72;1686172;85;20935;-77
2022/02/15 02:59:47;;;;;;;28.95;16.35;;;;;;;2.53;70.68;100093.70;1686088;84;21458;-76
2022/02/15 03:02:15;;;;;;;31.30;16.95;;;;;;;2.53;70.72;100095.84;1679441;85;21428;-77
2022/02/15 03:04:42;;;;;;;29.23;18.15;;;;;;;2.53;70.72;100094.56;1673451;85;20982;-77
2022/02/15 03:07:09;;;;;;;31.45;16.82;;;;;;;2.53;70.73;100090.73;1678792;84;21094;-77
2022/02/15 03:09:35;;;;;;;30.37;17.27;;;;;;;2.54;70.80;100092.44;1677817;84;21403;-77
2022/02/15 03:12:04;;;;;;;33.42;17.40;;;;;;;2.55;70.79;100100.95;1665663;85;21026;-78
2022/02/15 03:14:30;;;;;;;28.50;16.30;;;;;;;2.55;70.83;100096.70;1684024;85;21848;-78
2022/02/15 03:16:56;;;;;;;28.80;17.80;;;;;;;2.56;70.84;100100.97;1677969;84;20899;-78
2022/02/15 03:19:24;;;;;;;27.13;16.77;;;;;;;2.58;70.84;100103.11;1680446;85;20920;-78
2022/02/15 03:21:50;;;;;;;30.15;17.57;;;;;;;2.60;70.85;100105.22;1683321;85;21622;-78
2022/02/15 03:24:16;;;;;;;30.65;16.27;;;;;;;2.62;70.88;100094.60;1663367;84;21116;-78
2022/02/15 03:26:44;;;;;;;26.33;17.00;;;;;;;2.65;70.89;100096.33;1660662;84;21510;-79
2022/02/15 03:29:13;;;;;;;27.80;16.82;;;;;;;2.68;70.89;100096.77;1684973;84;20969;-79
2022/02/15 03:31:41;;;;;;;30.45;17.73;;;;;;;2.70;70.88;100093.80;1656768;84;21434;-78
2022/02/15 03:34:07;;;;;;;31.25;18.67;;;;;;;2.73;70.91;100106.17;1651335;86;20987;-77
2022/02/15 03:36:38;;;;;;;26.55;16.77;;;;;;;2.75;70.92;100104.48;1675794;84;20945;-77
2022/02/15 03:39:06;;;;;;;;;;;;;;;2.78;70.90;100106.20;1660467;85;20982;-77
2022/02/15 03:44:17;;;;;;;28.00;17.80;;;;;;;2.82;70.95;100105.39;1648617;86;20926;-77
2022/02/15 03:46:44;;;;;;;27.15;17.07;;;;;;;2.84;70.91;100106.25;1652686;85;20980;-77
2022/02/15 03:49:11;;;;;;;30.68;16.40;;;;;;;2.86;70.95;100108.39;1686791;83;20920;-77
2022/02/15 03:51:39;;;;;;;29.05;17.23;;;;;;;2.78;70.98;100089.19;1684131;84;20918;-78
2022/02/15 03:54:06;;;;;;;26.25;16.75;;;;;;;2.90;70.99;100104.59;1656139;85;20957;-77
2022/02/15 03:56:34;;;;;;;27.82;16.42;;;;;;;2.91;70.95;100109.28;1661769;85;20909;-78
2022/02/15 03:59:05;;;;;;;31.42;17.92;;;;;;;2.93;70.99;100102.48;1671427;84;20931;-78
2022/02/15 04:01:31;;;;;;;32.03;17.30;;;;;;;2.95;71.02;100104.20;1657297;86;20951;-78
2022/02/15 04:03:57;;;;;;;28.85;17.23;;;;;;;2.96;71.00;100102.09;1657439;86;20980;-78
2022/02/15 04:06:23;;;;;;;30.50;18.15;;;;;;;2.97;70.99;100106.77;1659606;85;20927;-78
2022/02/15 04:08:49;;;;;;;32.03;18.90;;;;;;;2.98;71.01;100111.03;1668617;84;21665;-77
2022/02/15 04:11:15;;;;;;;27.40;17.60;;;;;;;3.00;71.04;100105.52;1657435;86;20971;-77
2022/02/15 04:13:41;;;;;;;28.53;16.87;;;;;;;3.00;71.17;100108.07;1658138;85;22164;-77
2022/02/15 04:16:10;;;;;;;27.35;17.30;;;;;;;3.03;71.13;100122.14;1680013;85;20944;-78
2022/02/15 04:18:35;;;;;;;30.15;17.25;;;;;;;3.05;71.07;100124.28;1684915;84;20959;-78
2022/02/15 04:21:01;;;;;;;26.23;16.63;;;;;;;3.06;71.09;100128.97;1678293;84;21605;-78
2022/02/15 04:23:27;;;;;;;33.00;17.32;;;;;;;3.06;71.10;100124.71;1680598;85;20979;-78
2022/02/15 04:25:56;;;;;;;30.72;17.48;;;;;;;3.07;71.14;100132.80;1684944;84;20884;-78
2022/02/15 04:28:22;;;;;;;29.60;17.60;;;;;;;3.09;71.17;100123.88;1683397;84;20890;-78
2022/02/15 04:30:47;;;;;;;26.67;17.47;;;;;;;3.11;71.20;100131.13;1668290;84;21635;-78
2022/02/15 04:33:15;;;;;;;27.52;17.87;;;;;;;3.11;71.16;100131.13;1657215;85;20939;-78
2022/02/15 04:35:43;;;;;;;28.35;17.25;;;;;;;3.11;71.20;100131.13;1657142;86;20888;-78
2022/02/15 04:38:09;;;;;;;28.12;17.20;;;;;;;3.13;71.22;100137.92;1656889;85;21023;-78
2022/02/15 04:40:35;;;;;;;28.13;15.90;;;;;;;3.13;71.22;100134.09;1678499;85;20979;-78
2022/02/15 04:43:01;;;;;;;26.43;17.67;;;;;;;3.14;71.25;100131.97;1665266;84;21019;-78
2022/02/15 04:45:27;;;;;;;29.40;16.23;;;;;;;3.15;71.26;100134.10;1657623;85;21232;-78
2022/02/15 04:47:53;;;;;;;29.25;16.90;;;;;;;3.15;71.30;100127.72;1667242;84;21104;-78
2022/02/15 04:50:21;;;;;;;27.93;16.40;;;;;;;3.16;71.33;100126.87;1694481;83;21108;-79
2022/02/15 04:52:47;;;;;;;29.33;18.53;;;;;;;3.17;71.31;100131.98;1683894;84;20921;-79
2022/02/15 04:55:13;;;;;;;31.30;18.00;;;;;;;3.19;71.37;100131.58;1663944;85;20987;-78
2022/02/15 04:57:39;;;;;;;31.62;18.05;;;;;;;3.20;71.38;100131.16;1657508;85;21094;-78
2022/02/15 05:00:07;;;;;;;35.53;19.03;;;;;;;3.20;71.41;100125.62;1665344;84;20955;-78
2022/02/15 05:02:33;;;;;;;30.95;18.87;;;;;;;3.21;71.42;100135.41;1658599;85;20997;-78
2022/02/15 05:04:59;;;;;;;36.03;19.70;;;;;;;3.21;71.52;100134.14;1655252;85;20998;-78
2022/02/15 05:07:26;;;;;;;;;;;;;;;3.21;71.55;100130.31;1656595;86;21194;-77
2022/02/15 05:09:52;;;;;;;38.20;18.70;;;;;;;3.19;71.74;100130.30;1667309;85;20179;-77
2022/02/15 05:12:18;;;;;;;33.92;18.52;;;;;;;3.18;71.61;100137.53;1683032;84;21070;-77
2022/02/15 05:14:44;;;;;;;30.43;18.43;;;;;;;3.18;71.63;100139.23;1658804;85;21038;-77
2022/02/15 05:17:11;;;;;;;24.47;17.50;;;;;;;3.18;71.70;100136.25;1684971;84;21389;-78
2022/02/15 05:19:39;;;;;;;30.80;17.35;;;;;;;3.18;71.72;100138.80;1675232;85;21059;-78
2022/02/15 05:22:09;;;;;;;30.30;17.48;;;;;;;3.18;71.76;100136.25;1680532;85;21059;-78
2022/02/15 05:24:35;;;;;;;29.40;17.90;;;;;;;3.20;71.78;100141.38;1683378;85;21070;-78
2022/02/15 05:27:01;;;;;;;29.80;17.97;;;;;;;3.20;71.81;100139.67;1666232;85;21847;-77
2022/02/15 05:29:27;;;;;;;29.23;17.02;;;;;;;3.21;71.92;100136.27;1655779;85;20915;-78
2022/02/15 05:31:53;;;;;;;31.30;18.50;;;;;;;3.22;71.96;100139.26;1655476;86;21106;-78
2022/02/15 05:34:19;;;;;;;33.13;18.32;;;;;;;3.23;72.01;100138.83;1655071;86;21348;-78
2022/02/15 05:36:45;;;;;;;31.57;18.87;;;;;;;3.24;72.07;100137.56;1664268;83;21074;-79
2022/02/15 05:39:12;;;;;;;28.67;17.70;;;;;;;3.25;72.09;100138.00;1659992;85;21057;-79
2022/02/15 05:41:38;;;;;;;29.92;18.90;;;;;;;3.27;72.10;100136.31;1655411;86;21014;-78
2022/02/15 05:44:05;;;;;;;35.95;19.35;;;;;;;3.28;72.17;100138.44;1679240;85;21086;-77
2022/02/15 05:46:31;;;;;;;32.15;19.77;;;;;;;3.27;72.20;100139.28;1672410;83;21094;-77
2022/02/15 05:48:57;;;;;;;35.13;20.05;;;;;;;3.27;72.24;100135.45;1685226;83;21060;-77
2022/02/15 05:51:24;;;;;;;31.00;18.03;;;;;;;3.26;72.29;100143.97;1681845;83;21031;-78
2022/02/15 05:53:52;;;;;;;29.48;17.77;;;;;;;3.28;72.33;100141.00;1685248;85;20941;-77
2022/02/15 05:56:18;;;;;;;29.18;17.45;;;;;;;3.28;72.39;100145.69;1685427;85;20938;-78
2022/02/15 05:58:44;;;;;;;;;;;;;;;3.31;72.38;100157.62;1680639;85;21961;-77
2022/02/15 06:01:10;;;;;;;31.65;17.27;;;;;;;3.31;72.78;100157.62;1651486;84;20233;-77
2022/02/15 06:06:27;;;;;;;31.42;17.70;;;;;;;3.33;72.51;100158.06;1684758;83;20922;-77
2022/02/15 06:08:53;;;;;;;31.80;19.40;;;;;;;3.35;72.54;100156.80;1685293;83;20978;-73
2022/02/15 06:11:19;;;;;;;30.92;20.70;;;;;;;3.36;72.55;100162.77;1684477;85;20978;-73
2022/02/15 06:13:45;;;;;;;30.20;20.20;;;;;;;3.36;72.58;100161.48;1683491;83;21576;-73
2022/02/15 06:16:11;;;;;;;35.17;19.33;;;;;;;3.38;72.53;100162.34;1662276;85;20969;-79
2022/02/15 06:18:37;;;;;;;34.90;19.93;;;;;;;3.35;72.57;100169.99;1690715;82;20950;-76
2022/02/15 06:21:03;;;;;;;30.80;19.33;;;;;;;3.35;72.57;100169.99;1689141;83;21458;-76
2022/02/15 06:23:29;;;;;;;36.47;20.37;;;;;;;3.35;72.62;100178.94;1691125;83;20899;-77
2022/02/15 06:25:55;;;;;;;34.97;19.80;;;;;;;3.35;72.68;100176.38;1688965;84;20979;-76
2022/02/15 06:28:22;;;;;;;34.38;20.30;;;;;;;3.35;72.71;100188.73;1684197;84;21111;-76
2022/02/15 06:30:48;;;;;;;31.27;20.30;;;;;;;3.36;72.70;100197.26;1691309;83;20927;-76
2022/02/15 06:33:14;;;;;;;32.42;20.72;;;;;;;3.36;72.80;100203.65;1689690;83;20998;-77
2022/02/15 06:35:40;;;;;;;36.23;20.03;;;;;;;3.37;72.83;100210.47;1677211;83;20895;-77
2022/02/15 06:38:06;;;;;;;31.97;19.37;;;;;;;3.37;72.88;100210.05;1685411;84;21697;-76
2022/02/15 06:40:33;;;;;;;32.10;19.05;;;;;;;3.40;72.89;100210.49;1685303;83;21066;-76
2022/02/15 06:42:59;;;;;;;31.80;18.35;;;;;;;3.41;72.94;100215.61;1679716;84;20942;-77
2022/02/15 06:45:25;;;;;;;33.37;19.33;;;;;;;3.44;72.97;100216.91;1692636;84;21692;-76
2022/02/15 06:47:52;;;;;;;31.33;19.32;;;;;;;3.46;72.99;100211.39;1672385;84;20923;-76
2022/02/15 06:50:18;;;;;;;32.00;19.48;;;;;;;3.49;73.01;100214.38;1702062;82;20949;-76
2022/02/15 06:52:44;;;;;;;33.15;18.35;;;;;;;3.51;73.00;100219.08;1672078;84;21006;-77
2022/02/15 06:55:10;;;;;;;29.50;19.27;;;;;;;3.52;73.02;100222.92;1692787;82;20935;-77
2022/02/15 06:57:36;;;;;;;31.60;18.07;;;;;;;3.54;73.07;100219.10;1724683;83;20917;-77
2022/02/15 07:00:03;;;;;;;28.77;18.13;;;;;;;3.57;73.11;100228.06;1720759;82;20925;-78
2022/02/15 07:02:29;;;;;;;28.47;17.07;;;;;;;3.60;73.14;100237.03;1722555;81;21680;-76
2022/02/15 07:04:55;;;;;;;25.20;17.67;;;;;;;3.61;73.11;100234.91;1723672;83;21611;-77
2022/02/15 07:07:21;;;;;;;29.67;18.47;;;;;;;3.64;73.17;100234.90;1714757;83;20871;-77
2022/02/15 07:09:47;;;;;;;31.68;18.48;;;;;;;3.68;73.23;100233.21;1721757;81;20945;-76
2022/02/15 07:12:13;;;;;;;32.53;19.55;;;;;;;3.71;73.22;100231.53;1724513;83;20902;-77
2022/02/15 07:14:39;;;;;;;29.18;18.35;;;;;;;3.73;73.19;100229.84;1724580;81;20921;-77
2022/02/15 07:17:05;;;;;;;29.67;18.00;;;;;;;3.75;73.23;100229.42;1712502;82;21678;-78
2022/02/15 07:19:36;;;;;;;32.85;18.50;;;;;;;3.77;73.21;100233.27;1716073;83;20957;-77
2022/02/15 07:22:01;;;;;;;30.15;19.52;;;;;;;3.80;73.27;100239.25;1711019;82;20925;-77
2022/02/15 07:24:27;;;;;;;27.45;18.90;;;;;;;3.82;73.27;100235.00;1679693;85;21871;-77
2022/02/15 07:26:53;;;;;;;27.82;18.65;;;;;;;3.84;73.28;100233.73;1710695;82;20914;-76
2022/02/15 07:29:20;;;;;;;29.55;17.50;;;;;;;3.86;73.28;100226.92;1689625;83;20951;-77
2022/02/15 07:31:48;;;;;;;28.02;17.77;;;;;;;3.89;73.37;100226.52;1664890;84;20989;-77
2022/02/15 07:34:15;;;;;;;33.70;18.77;;;;;;;3.93;73.39;100236.34;1691610;84;20899;-76
2022/02/15 07:36:44;;;;;;;27.82;16.93;;;;;;;3.98;73.43;100239.77;1686278;84;20958;-76
2022/02/15 07:39:10;;;;;;;33.78;19.37;;;;;;;4.01;73.42;100241.48;1689705;84;20884;-76
2022/02/15 07:41:36;;;;;;;;;;;;;;;4.04;73.43;100246.20;1677394;83;20986;-77
2022/02/15 07:44:03;;;;;;;32.33;19.02;;;;;;;4.08;73.65;100249.63;1689698;83;20156;-77
2022/02/15 07:46:29;;;;;;;33.75;19.65;;;;;;;4.09;73.43;100257.31;1677101;83;20919;-78
2022/02/15 07:48:55;;;;;;;32.77;18.93;;;;;;;4.13;73.49;100250.50;1684753;83;20983;-77
2022/02/15 07:51:21;;;;;;;32.53;19.65;;;;;;;4.15;73.54;100241.98;1691953;84;20887;-78
2022/02/15 07:53:48;;;;;;;31.37;18.95;;;;;;;4.20;73.53;100243.25;1692597;83;20921;-77
2022/02/15 07:56:14;;;;;;;34.43;19.90;;;;;;;4.23;73.56;100245.39;1671918;84;20965;-77
2022/02/15 07:58:40;;;;;;;32.77;19.83;;;;;;;4.27;73.59;100250.10;1688041;84;20876;-77
2022/02/15 08:01:06;;;;;;;32.50;19.02;;;;;;;4.30;73.63;100248.83;1692175;84;20913;-77
2022/02/15 08:03:32;;;;;;;35.28;20.23;;;;;;;4.37;73.66;100256.11;1688727;84;20897;-77
2022/02/15 08:05:58;;;;;;;32.05;20.08;;;;;;;4.40;73.65;100253.14;1689928;84;20930;-77
2022/02/15 08:08:25;;;;;;;36.90;20.20;;;;;;;4.45;73.65;100251.88;1690908;84;20910;-77
2022/02/15 08:10:51;;;;;;;36.68;21.65;;;;;;;4.51;73.65;100247.63;1689941;84;21064;-76
2022/02/15 08:13:21;;;;;;;35.80;20.70;;;;;;;4.56;73.72;100252.33;1690039;83;21027;-76
2022/02/15 08:15:49;;;;;;;36.65;20.68;;;;;;;4.61;73.69;100254.48;1683969;84;20938;-76
2022/02/15 08:18:18;;;;;;;32.48;20.62;;;;;;;4.66;73.71;100249.37;1662423;85;20950;-76
2022/02/15 08:20:44;;;;;;;34.73;21.12;;;;;;;4.72;73.70;100255.75;1661426;85;20936;-76
2022/02/15 08:23:10;;;;;;;42.90;21.48;;;;;;;4.76;73.66;100260.45;1664237;84;21307;-76
2022/02/15 08:25:37;;;;;;;36.33;21.52;;;;;;;4.81;73.75;100254.91;1659397;84;20960;-77
2022/02/15 08:28:04;;;;;;;38.85;22.90;;;;;;;4.85;73.69;100268.16;1634592;85;20905;-77
2022/02/15 08:30:30;;;;;;;39.48;22.62;;;;;;;4.88;73.71;100276.70;1666915;84;21437;-76
2022/02/15 08:32:56;;;;;;;41.67;22.73;;;;;;;4.93;73.75;100272.44;1666512;84;20947;-76
2022/02/15 08:35:22;;;;;;;35.23;20.47;;;;;;;4.97;73.70;100282.27;1666403;84;21618;-76
2022/02/15 08:37:51;;;;;;;37.53;21.68;;;;;;;5.00;73.75;100280.98;1657018;84;326059;-76
2022/02/15 08:40:18;;;;;;;34.30;21.17;;;;;;;5.05;73.78;100279.72;1667933;84;20929;-76
2022/02/15 08:42:44;;;;;;;36.00;20.25;;;;;;;5.09;73.79;100276.30;1665626;84;21876;-76
2022/02/15 08:45:12;;;;;;;31.95;19.37;;;;;;;5.15;73.84;100282.29;1668011;84;20885;-75
2022/02/15 08:47:39;;;;;;;33.15;18.70;;;;;;;5.20;73.84;100284.40;1670201;84;21496;-76
2022/02/15 08:50:08;;;;;;;33.67;18.20;;;;;;;5.27;73.84;100278.84;1662931;84;20929;-76
2022/02/15 08:52:38;;;;;;;30.32;17.27;;;;;;;5.33;73.86;100280.98;1638432;85;20890;-79
2022/02/15 08:55:07;;;;;;;29.32;17.17;;;;;;;5.41;73.91;100282.27;1640040;86;21502;-81
2022/02/15 08:57:34;;;;;;;26.37;16.75;;;;;;;5.49;73.91;100280.55;1664697;85;20924;-82
2022/02/15 09:00:00;;;;;;;24.40;15.38;;;;;;;5.53;73.86;100280.98;1662446;86;20925;-80
2022/02/15 09:02:26;;;;;;;25.60;16.87;;;;;;;5.60;73.90;100276.70;1657205;85;20962;-80
2022/02/15 09:04:53;;;;;;;25.68;16.27;;;;;;;5.65;73.93;100280.11;1644115;85;20936;-81
2022/02/15 09:07:19;;;;;;;25.65;16.02;;;;;;;5.71;73.93;100281.39;1631848;84;21035;-80
2022/02/15 09:09:45;;;;;;;26.70;17.32;;;;;;;5.75;73.93;100279.21;1644795;85;20900;-82
2022/02/15 09:12:13;;;;;;;24.20;15.25;;;;;;;5.82;74.03;100282.62;1642399;87;20952;-76
2022/02/15 09:14:39;;;;;;;21.57;14.83;;;;;;;5.89;74.01;100286.92;1642525;85;20939;-77
2022/02/15 09:17:05;;;;;;;25.17;15.53;;;;;;;5.97;74.05;100297.59;1671445;85;20963;-77
2022/02/15 09:19:32;;;;;;;23.02;15.38;;;;;;;6.06;74.13;100290.73;1675492;85;20946;-77
2022/02/15 09:21:59;;;;;;;23.98;14.07;;;;;;;6.21;74.22;100300.52;1683327;85;20896;-77
2022/02/15 09:24:28;;;;;;;22.25;14.28;;;;;;;6.38;74.21;100300.86;1677493;84;20937;-77
2022/02/15 09:26:54;;;;;;;21.40;15.18;;;;;;;6.52;74.16;100310.22;1681724;84;21018;-77
2022/02/15 09:29:20;;;;;;;25.17;16.07;;;;;;;6.67;74.13;100309.72;1684406;84;20870;-77
2022/02/15 09:31:46;;;;;;;21.70;13.77;;;;;;;6.76;74.05;100313.53;1675260;84;20974;-78
2022/02/15 09:34:12;;;;;;;22.57;14.67;;;;;;;6.84;74.06;100316.88;1698916;82;20945;-77
2022/02/15 09:36:39;;;;;;;21.62;13.50;;;;;;;6.91;74.08;100321.13;1631226;85;20974;-77
2022/02/15 09:39:07;;;;;;;23.40;13.83;;;;;;;6.96;74.04;100318.95;1684873;83;20954;-77
2022/02/15 09:41:34;;;;;;;19.73;13.38;;;;;;;7.01;74.03;100318.07;1674836;84;20923;-77
2022/02/15 09:44:06;;;;;;;19.00;13.32;;;;;;;7.04;74.06;100316.34;1700473;82;21414;-77
2022/02/15 09:46:34;;;;;;;21.07;14.38;;;;;;;7.05;74.08;100314.19;1674724;84;20857;-76
2022/02/15 09:49:01;;;;;;;22.80;14.70;;;;;;;7.10;74.10;100320.16;1686156;83;21531;-76
2022/02/15 09:51:28;;;;;;;22.35;13.65;;;;;;;7.15;74.15;100315.84;1687890;83;20950;-77
2022/02/15 09:53:55;;;;;;;21.15;13.43;;;;;;;7.22;74.17;100320.08;1669263;84;21777;-77
2022/02/15 09:56:22;;;;;;;18.15;13.62;;;;;;;7.31;74.19;100321.69;1705514;82;20899;-77
2022/02/15 09:58:48;;;;;;;21.73;14.13;;;;;;;7.37;74.19;100319.52;1687018;85;20939;-76
2022/02/15 10:01:16;;;;;;;20.45;13.28;;;;;;;7.43;74.21;100320.75;1687082;85;26770;-77
2022/02/15 10:03:58;;;;;;;19.52;12.75;;;;;;;7.49;74.22;100320.70;1640674;85;21458;-76
2022/02/15 10:06:31;;;;;;;23.70;12.13;;;;;;;7.52;74.16;100316.81;1685632;84;20898;-78
2022/02/15 10:09:02;;;;;;;21.57;12.78;;;;;;;7.56;74.21;100321.92;1718339;83;20911;-77
2022/02/15 10:11:42;;;;;;;23.00;13.28;;;;;;;7.65;74.30;100321.00;1705241;82;20891;-75
2022/02/15 10:14:10;;;;;;;17.45;12.82;;;;;;;7.76;74.32;100319.62;1714998;82;21415;-77
2022/02/15 10:16:48;;;;;;;23.90;12.68;;;;;;;7.87;74.28;100317.33;1687433;83;20965;-77
2022/02/15 10:19:26;;;;;;;19.07;12.45;;;;;;;7.97;74.33;100314.23;1702900;83;21338;-77
2022/02/15 10:21:56;;;;;;;15.83;11.55;;;;;;;8.09;74.43;100310.67;1698701;83;21376;-77
2022/02/15 10:24:33;;;;;;;25.35;12.90;;;;;;;8.21;74.36;100308.82;1706191;83;21543;-78
2022/02/15 10:27:03;;;;;;;20.52;11.57;;;;;;;8.27;74.24;100306.18;1702650;83;20877;-78
2022/02/15 10:29:32;;;;;;;18.75;11.88;;;;;;;8.29;74.21;100309.59;1700440;83;20916;-77
2022/02/15 10:32:05;;;;;;;19.20;11.80;;;;;;;8.29;74.20;100303.58;1702621;83;20972;-78
2022/02/15 10:34:33;;;;;;;21.12;12.00;;;;;;;8.33;74.29;100307.83;1702817;83;21398;-78
2022/02/15 10:37:04;;;;;;;13.75;9.55;;;;;;;8.37;74.29;100306.07;1711187;83;20955;-77
2022/02/15 10:39:37;;;;;;;17.73;11.00;;;;;;;8.39;74.25;100306.91;1708472;83;20958;-78
2022/02/15 10:42:17;;;;;;;20.32;10.40;;;;;;;8.40;74.25;100298.30;1703646;83;21521;-79
2022/02/15 10:45:04;;;;;;;16.55;10.50;;;;;;;8.44;74.32;100304.69;1713876;83;20920;-79
2022/02/15 10:47:36;;;;;;;12.95;9.75;;;;;;;8.48;74.31;100305.51;1696021;83;21757;-78
2022/02/15 10:50:12;;;;;;;18.20;10.28;;;;;;;8.52;74.27;100308.03;1704286;82;20876;-78
2022/02/15 10:52:56;;;;;;;12.28;8.43;;;;;;;8.58;74.32;100306.66;1700721;83;21446;-77
2022/02/15 10:55:23;;;;;;;14.03;8.93;;;;;;;8.66;74.28;100310.87;1706209;82;21444;-78
2022/02/15 10:57:50;;;;;;;17.27;10.43;;;;;;;8.69;74.29;100312.97;1687858;83;20916;-78
2022/02/15 11:00:19;;;;;;;15.58;11.10;;;;;;;8.75;74.32;100298.71;1708513;83;21456;-78
2022/02/15 11:02:47;;;;;;;15.70;9.50;;;;;;;8.80;74.24;100305.09;1708169;83;21442;-77
2022/02/15 11:05:14;;;;;;;13.35;8.55;;;;;;;8.83;74.19;100313.64;1698768;83;21813;-77
2022/02/15 11:07:41;;;;;;;17.10;9.43;;;;;;;8.82;74.18;100301.63;1694921;83;21387;-77
2022/02/15 11:10:47;;;;;;;17.42;9.53;;;;;;;8.87;74.19;100313.98;1677067;83;20897;-78
2022/02/15 11:13:16;;;;;;;13.35;9.18;;;;;;;8.92;74.22;100310.05;1646903;83;21423;-78
2022/02/15 11:15:42;;;;;;;13.95;9.40;;;;;;;8.97;74.22;100316.00;1707080;82;20968;-78
2022/02/15 11:18:10;;;;;;;15.85;10.03;;;;;;;9.03;74.32;100314.63;1699049;83;20933;-78
2022/02/15 11:20:54;;;;;;;14.38;9.00;;;;;;;9.07;74.22;100311.56;1646764;86;21426;-78
2022/02/15 11:23:32;;;;;;;15.15;9.65;;;;;;;9.12;74.21;100309.33;1588841;84;21025;-80
2022/02/15 11:26:16;;;;;;;16.42;8.30;;;;;;;9.17;74.21;100310.55;1571734;90;21443;-78
2022/02/15 11:28:54;;;;;;;13.20;9.40;;;;;;;9.21;74.19;100313.06;1571382;90;20981;-77